createdAt,value
2019-03-16T00:00:35.649Z,84.60
2019-03-16T00:03:04.484Z,84.90
2019-03-16T00:05:33.202Z,84.40
2019-03-16T00:08:01.914Z,83.90
2019-03-16T00:10:30.641Z,84.20
2019-03-16T00:12:59.695Z,83.60
2019-03-16T00:15:28.400Z,83.10
2019-03-16T00:17:57.131Z,83.00
2019-03-16T00:20:25.850Z,83.20
2019-03-16T00:22:54.564Z,82.80
2019-03-16T00:25:23.311Z,83.20
2019-03-16T00:27:52.026Z,83.20
2019-03-16T00:30:20.750Z,83.50
2019-03-16T00:32:49.471Z,83.20
2019-03-16T00:35:18.299Z,83.70
2019-03-16T00:37:47.007Z,83.20
2019-03-16T00:40:15.746Z,83.30
2019-03-16T00:42:44.458Z,83.30
2019-03-16T00:45:13.160Z,83.40
2019-03-16T00:47:41.904Z,83.60
2019-03-16T00:50:10.702Z,83.30
2019-03-16T00:52:39.404Z,83.70
2019-03-16T00:55:08.155Z,83.70
2019-03-16T00:57:36.970Z,83.80
2019-03-16T01:00:05.902Z,83.80
2019-03-16T01:02:34.668Z,83.60
2019-03-16T01:05:03.454Z,83.10
2019-03-16T01:07:32.247Z,82.70
2019-03-16T01:10:01.058Z,82.40
2019-03-16T01:12:29.778Z,81.70
2019-03-16T01:14:58.502Z,81.80
2019-03-16T01:17:27.326Z,81.80
2019-03-16T01:19:56.083Z,81.50
2019-03-16T01:22:24.867Z,81.40
2019-03-16T01:24:53.647Z,81.70
2019-03-16T01:27:22.370Z,81.60
2019-03-16T01:29:51.091Z,81.50
2019-03-16T01:32:19.851Z,82.20
2019-03-16T01:34:48.619Z,81.50
2019-03-16T01:37:17.387Z,81.00
2019-03-16T01:39:46.139Z,81.10
2019-03-16T01:42:14.855Z,80.80
2019-03-16T01:44:43.578Z,81.40
2019-03-16T01:47:12.341Z,81.90
2019-03-16T01:49:41.148Z,81.70
2019-03-16T01:52:09.896Z,81.50
2019-03-16T01:54:38.628Z,81.70
2019-03-16T01:57:07.338Z,82.30
2019-03-16T01:59:36.070Z,82.80
2019-03-16T02:02:04.808Z,83.20
2019-03-16T02:04:33.540Z,82.70
2019-03-16T02:07:02.318Z,83.40
2019-03-16T02:09:31.139Z,84.40
2019-03-16T02:12:00.617Z,84.40
2019-03-16T02:14:29.451Z,84.70
2019-03-16T02:16:58.211Z,85.00
2019-03-16T02:19:26.956Z,85.00
2019-03-16T02:21:55.725Z,84.90
2019-03-16T02:24:24.557Z,85.90
2019-03-16T02:26:53.350Z,85.50
2019-03-16T02:29:22.082Z,84.90
2019-03-16T02:31:50.858Z,84.90
2019-03-16T02:34:19.651Z,85.40
2019-03-16T02:36:54.487Z,84.60
2019-03-16T02:39:23.304Z,84.90
2019-03-16T02:41:52.171Z,84.80
2019-03-16T02:44:20.931Z,84.60
2019-03-16T02:46:49.664Z,84.80
2019-03-16T02:49:18.461Z,84.60
2019-03-16T02:51:47.265Z,84.50
2019-03-16T02:54:16.079Z,84.40
2019-03-16T02:56:44.802Z,84.60
2019-03-16T02:59:13.544Z,83.60
2019-03-16T03:01:42.260Z,83.50
2019-03-16T03:04:11.063Z,83.60
2019-03-16T03:06:39.783Z,83.60
2019-03-16T03:09:09.020Z,83.20
2019-03-16T03:11:37.735Z,82.70
2019-03-16T03:14:06.462Z,83.00
2019-03-16T03:16:35.182Z,83.00
2019-03-16T03:19:03.980Z,82.00
2019-03-16T03:21:32.785Z,81.90
2019-03-16T03:24:01.515Z,82.20
2019-03-16T03:26:30.304Z,81.30
2019-03-16T03:28:59.031Z,81.40
2019-03-16T03:31:27.755Z,81.40
2019-03-16T03:34:01.057Z,81.30
2019-03-16T03:36:26.931Z,80.90
2019-03-16T03:38:55.634Z,80.40
2019-03-16T03:41:24.365Z,80.60
2019-03-16T03:43:53.164Z,80.40
2019-03-16T03:46:21.942Z,80.80
2019-03-16T03:48:50.727Z,80.30
2019-03-16T03:51:19.524Z,80.30
2019-03-16T03:53:48.228Z,80.30
2019-03-16T03:56:16.945Z,79.90
2019-03-16T03:58:45.750Z,80.10
2019-03-16T04:01:14.471Z,79.80
2019-03-16T04:03:43.202Z,79.80
2019-03-16T04:06:12.015Z,80.00
2019-03-16T04:08:40.795Z,79.90
2019-03-16T04:11:09.506Z,80.80
2019-03-16T04:13:38.297Z,79.90
2019-03-16T04:16:07.179Z,80.10
2019-03-16T04:18:35.896Z,79.80
2019-03-16T04:21:04.697Z,79.90
2019-03-16T04:23:33.427Z,79.80
2019-03-16T04:26:02.221Z,79.60
2019-03-16T04:28:31.042Z,79.80
2019-03-16T04:30:59.828Z,80.80
2019-03-16T04:33:28.522Z,80.30
2019-03-16T04:35:57.284Z,80.80
2019-03-16T04:38:25.994Z,80.80
2019-03-16T04:40:54.731Z,81.00
2019-03-16T04:43:23.452Z,81.20
2019-03-16T04:45:52.163Z,81.00
2019-03-16T04:48:20.874Z,81.60
2019-03-16T04:50:49.623Z,81.40
2019-03-16T04:53:18.335Z,81.00
2019-03-16T04:55:47.039Z,80.70
2019-03-16T04:58:15.780Z,81.00
2019-03-16T05:00:44.539Z,80.80
2019-03-16T05:03:13.265Z,80.60
2019-03-16T05:05:42.005Z,80.30
2019-03-16T05:08:10.790Z,80.20
2019-03-16T05:10:39.493Z,79.80
2019-03-16T05:13:08.215Z,79.20
2019-03-16T05:15:36.956Z,79.40
2019-03-16T05:18:05.666Z,78.90
2019-03-16T05:20:34.386Z,78.90
2019-03-16T05:23:03.173Z,78.60
2019-03-16T05:25:31.883Z,78.10
2019-03-16T05:28:00.574Z,78.30
2019-03-16T05:30:29.382Z,77.90
2019-03-16T05:32:58.095Z,77.60
2019-03-16T05:35:26.823Z,77.30
2019-03-16T05:37:55.552Z,77.20
2019-03-16T05:40:24.268Z,77.00
2019-03-16T05:42:53.055Z,76.60
2019-03-16T05:45:21.780Z,76.30
2019-03-16T05:47:50.561Z,76.30
2019-03-16T05:50:19.264Z,75.60
2019-03-16T05:52:47.986Z,76.10
2019-03-16T05:55:16.688Z,76.00
2019-03-16T05:57:45.413Z,75.50
2019-03-16T06:00:14.136Z,75.70
2019-03-16T06:02:42.839Z,75.40
2019-03-16T06:05:11.650Z,75.00
2019-03-16T06:07:40.376Z,74.90
2019-03-16T06:10:09.119Z,74.80
2019-03-16T06:12:37.838Z,74.90
2019-03-16T06:15:06.666Z,74.80
2019-03-16T06:17:35.397Z,75.10
2019-03-16T06:20:04.689Z,74.90
2019-03-16T06:22:33.485Z,74.40
2019-03-16T06:25:02.194Z,75.00
2019-03-16T06:27:30.990Z,74.80
2019-03-16T06:29:59.705Z,74.80
2019-03-16T06:32:28.440Z,74.60
2019-03-16T06:34:57.153Z,74.30
2019-03-16T06:37:25.884Z,74.20
2019-03-16T06:39:54.597Z,74.50
2019-03-16T06:42:23.402Z,74.50
2019-03-16T06:44:52.122Z,74.00
2019-03-16T06:47:23.176Z,74.20
2019-03-16T06:49:51.296Z,74.30
2019-03-16T06:52:20.019Z,73.90
2019-03-16T06:54:48.771Z,73.90
2019-03-16T06:57:17.545Z,73.40
2019-03-16T06:59:46.358Z,74.00
2019-03-16T07:02:15.087Z,74.00
2019-03-16T07:04:43.833Z,73.90
2019-03-16T07:07:12.555Z,74.00
2019-03-16T07:09:41.271Z,74.30
2019-03-16T07:12:09.987Z,74.10
2019-03-16T07:14:38.710Z,73.60
2019-03-16T07:17:07.442Z,74.00
2019-03-16T07:19:36.223Z,74.20
2019-03-16T07:22:04.972Z,74.20
2019-03-16T07:24:33.785Z,74.30
2019-03-16T07:27:02.627Z,73.90
2019-03-16T07:29:31.523Z,74.00
2019-03-16T07:32:00.244Z,74.00
2019-03-16T07:34:28.975Z,74.20
2019-03-16T07:36:57.691Z,74.10
2019-03-16T07:39:26.498Z,74.10
2019-03-16T07:41:55.221Z,73.90
2019-03-16T07:44:23.951Z,73.90
2019-03-16T07:46:52.657Z,73.70
2019-03-16T07:49:21.395Z,73.70
2019-03-16T07:51:50.195Z,73.80
2019-03-16T07:54:18.920Z,74.10
2019-03-16T07:56:47.660Z,73.80
2019-03-16T07:59:16.366Z,73.60
2019-03-16T08:01:45.103Z,73.60
2019-03-16T08:04:13.812Z,73.20
2019-03-16T08:06:42.539Z,73.30
2019-03-16T08:09:11.379Z,73.30
2019-03-16T08:11:40.163Z,72.80
2019-03-16T08:14:08.897Z,72.90
2019-03-16T08:16:37.614Z,74.20
2019-03-16T08:19:06.333Z,74.40
2019-03-16T08:21:35.063Z,73.90
2019-03-16T08:24:03.818Z,74.30
2019-03-16T08:26:32.536Z,73.70
2019-03-16T08:29:01.245Z,73.10
2019-03-16T08:31:29.976Z,72.80
2019-03-16T08:33:58.686Z,72.70
2019-03-16T08:36:27.415Z,72.30
2019-03-16T08:38:56.126Z,72.30
2019-03-16T08:41:24.849Z,72.70
2019-03-16T08:43:53.559Z,72.30
2019-03-16T08:46:22.267Z,72.20
2019-03-16T08:48:51.274Z,71.20
2019-03-16T08:51:19.989Z,71.40
2019-03-16T08:53:48.709Z,71.90
2019-03-16T08:56:17.429Z,71.30
2019-03-16T08:58:46.252Z,71.00
2019-03-16T09:01:14.962Z,71.20
2019-03-16T09:03:44.139Z,71.00
2019-03-16T09:06:12.974Z,71.20
2019-03-16T09:08:41.784Z,70.40
2019-03-16T09:11:11.374Z,70.00
2019-03-16T09:13:40.203Z,69.40
2019-03-16T09:16:09.088Z,69.90
2019-03-16T09:18:37.824Z,68.90
2019-03-16T09:21:06.557Z,68.50
2019-03-16T09:23:35.353Z,67.80
2019-03-16T09:26:04.055Z,69.00
2019-03-16T09:28:32.779Z,67.70
2019-03-16T09:31:01.479Z,68.10
2019-03-16T09:33:30.307Z,67.50
2019-03-16T09:35:59.062Z,67.50
2019-03-16T09:38:27.871Z,67.70
2019-03-16T09:40:56.683Z,67.40
2019-03-16T09:43:25.413Z,67.40
2019-03-16T09:45:54.156Z,67.40
2019-03-16T09:48:22.888Z,67.70
2019-03-16T09:50:51.706Z,67.60
2019-03-16T09:53:20.430Z,68.20
2019-03-16T09:55:49.150Z,68.00
2019-03-16T09:58:30.472Z,67.40
2019-03-16T10:00:48.415Z,68.10
2019-03-16T10:03:17.163Z,67.70
2019-03-16T10:05:45.883Z,67.90
2019-03-16T10:08:14.597Z,68.30
2019-03-16T10:10:43.354Z,67.80
2019-03-16T10:13:12.153Z,68.10
2019-03-16T10:15:40.908Z,67.70
2019-03-16T10:18:09.615Z,67.50
2019-03-16T10:20:38.352Z,66.90
2019-03-16T10:23:07.166Z,66.30
2019-03-16T10:25:35.894Z,65.80
2019-03-16T10:28:04.690Z,65.60
2019-03-16T10:30:33.424Z,65.40
2019-03-16T10:33:02.170Z,65.00
2019-03-16T10:35:30.911Z,64.90
2019-03-16T10:37:59.647Z,64.30
2019-03-16T10:40:28.485Z,64.30
2019-03-16T10:42:57.203Z,63.50
2019-03-16T10:45:26.003Z,63.40
2019-03-16T10:47:54.771Z,63.50
2019-03-16T10:50:23.568Z,62.70
2019-03-16T10:52:52.303Z,62.60
2019-03-16T10:55:21.089Z,62.40
2019-03-16T10:57:49.890Z,61.60
2019-03-16T11:00:18.631Z,62.20
2019-03-16T11:02:47.448Z,62.60
2019-03-16T11:05:16.267Z,63.00
2019-03-16T11:07:44.968Z,63.50
2019-03-16T11:10:13.737Z,63.40
2019-03-16T11:12:42.470Z,62.90
2019-03-16T11:15:11.265Z,62.60
2019-03-16T11:17:40.015Z,62.80
2019-03-16T11:20:08.840Z,63.30
2019-03-16T11:22:37.640Z,62.70
2019-03-16T11:25:06.416Z,62.20
2019-03-16T11:27:35.158Z,62.00
2019-03-16T11:30:03.906Z,61.50
2019-03-16T11:32:32.756Z,61.20
2019-03-16T11:35:01.498Z,60.50
2019-03-16T11:37:30.304Z,60.30
2019-03-16T11:39:59.020Z,60.20
2019-03-16T11:42:27.744Z,61.00
2019-03-16T11:44:56.585Z,60.40
2019-03-16T11:47:25.314Z,60.10
2019-03-16T11:49:54.038Z,59.50
2019-03-16T11:52:22.767Z,59.90
2019-03-16T11:54:51.515Z,59.60
2019-03-16T11:57:20.244Z,58.70
2019-03-16T11:59:49.055Z,58.10
2019-03-16T12:02:17.809Z,58.50
2019-03-16T12:04:46.609Z,58.80
2019-03-16T12:07:15.355Z,58.80
2019-03-16T12:09:44.181Z,58.90
2019-03-16T12:12:12.918Z,59.60
2019-03-16T12:14:41.666Z,58.70
2019-03-16T12:17:10.389Z,58.40
2019-03-16T12:19:39.138Z,58.90
2019-03-16T12:22:07.908Z,58.40
2019-03-16T12:24:36.740Z,58.70
2019-03-16T12:27:05.493Z,59.10
2019-03-16T12:29:34.555Z,59.10
2019-03-16T12:32:03.519Z,58.80
2019-03-16T12:34:32.239Z,59.00
2019-03-16T12:37:01.020Z,59.30
2019-03-16T12:39:29.879Z,59.50
2019-03-16T12:41:58.704Z,59.50
2019-03-16T12:44:27.440Z,59.50
2019-03-16T12:46:56.153Z,59.10
2019-03-16T12:49:24.969Z,59.00
2019-03-16T12:51:53.776Z,59.40
2019-03-16T12:54:22.594Z,59.20
2019-03-16T12:56:51.482Z,59.30
2019-03-16T12:59:20.244Z,59.40
2019-03-16T13:01:49.040Z,59.60
2019-03-16T13:04:17.855Z,60.20
2019-03-16T13:06:46.612Z,60.50
2019-03-16T13:09:15.346Z,60.20
2019-03-16T13:11:44.117Z,60.00
2019-03-16T13:14:12.945Z,60.00
2019-03-16T13:16:41.683Z,59.60
2019-03-16T13:19:12.384Z,59.50
2019-03-16T13:21:43.609Z,58.00
2019-03-16T13:24:11.388Z,57.40
2019-03-16T13:26:40.322Z,56.50
2019-03-16T13:29:09.060Z,56.40
2019-03-16T13:31:37.901Z,55.90
2019-03-16T13:34:06.650Z,55.00
2019-03-16T13:36:35.461Z,55.10
2019-03-16T13:39:06.389Z,54.90
2019-03-16T13:41:35.265Z,55.70
2019-03-16T13:44:04.161Z,56.30
2019-03-16T13:46:32.995Z,55.50
2019-03-16T13:49:01.764Z,54.80
2019-03-16T13:51:30.908Z,53.70
2019-03-16T13:53:59.710Z,53.30
2019-03-16T13:56:28.615Z,51.10
2019-03-16T13:58:57.711Z,50.50
2019-03-16T14:01:26.443Z,50.20
2019-03-16T14:03:55.255Z,48.90
2019-03-16T14:06:24.102Z,48.40
2019-03-16T14:08:53.115Z,49.60
2019-03-16T14:11:21.903Z,48.90
2019-03-16T14:13:50.729Z,50.40
2019-03-16T14:16:19.813Z,50.90
2019-03-16T14:18:48.616Z,52.20
2019-03-16T14:21:17.494Z,52.70
2019-03-16T14:23:46.322Z,53.40
2019-03-16T14:26:15.112Z,53.60
2019-03-16T14:28:44.002Z,54.20
2019-03-16T14:31:12.826Z,54.60
2019-03-16T14:33:41.726Z,54.20
2019-03-16T14:36:10.578Z,54.80
2019-03-16T14:38:39.851Z,54.70
2019-03-16T14:41:08.661Z,54.70
2019-03-16T14:43:37.535Z,53.40
2019-03-16T14:46:06.332Z,53.60
2019-03-16T14:48:35.083Z,53.40
2019-03-16T14:51:03.968Z,52.30
2019-03-16T14:53:32.717Z,50.40
2019-03-16T14:56:01.562Z,49.00
2019-03-16T14:58:30.338Z,46.60
2019-03-16T15:00:59.149Z,45.10
2019-03-16T15:03:27.980Z,45.60
2019-03-16T15:05:56.742Z,46.00
2019-03-16T15:08:25.496Z,45.70
2019-03-16T15:10:54.252Z,46.10
2019-03-16T15:13:23.014Z,46.00
2019-03-16T15:15:51.767Z,44.70
2019-03-16T15:18:20.522Z,44.00
2019-03-16T15:20:49.311Z,42.70
2019-03-16T15:23:18.315Z,41.90
2019-03-16T15:25:47.054Z,41.10
2019-03-16T15:28:15.886Z,39.20
2019-03-16T15:30:50.634Z,39.80
2019-03-16T15:33:15.294Z,39.80
2019-03-16T15:35:44.062Z,39.30
2019-03-16T15:38:12.858Z,39.00
2019-03-16T15:40:41.651Z,37.90
2019-03-16T15:43:10.369Z,38.20
2019-03-16T15:45:39.103Z,38.60
2019-03-16T15:48:07.822Z,39.20
2019-03-16T15:50:36.539Z,38.10
2019-03-16T15:53:05.348Z,38.10
2019-03-16T15:55:34.257Z,38.50
2019-03-16T15:58:08.036Z,39.40
2019-03-16T16:00:33.546Z,39.20
2019-03-16T16:03:02.331Z,39.00
2019-03-16T16:05:31.134Z,38.90
2019-03-16T16:07:59.961Z,39.20
2019-03-16T16:10:28.742Z,39.50
2019-03-16T16:12:57.566Z,39.40
2019-03-16T16:15:26.376Z,39.80
2019-03-16T16:17:55.225Z,40.40
2019-03-16T16:20:24.038Z,41.30
2019-03-16T16:22:52.819Z,42.30
2019-03-16T16:25:21.707Z,43.00
2019-03-16T16:27:50.585Z,43.80
2019-03-16T16:30:19.409Z,44.30
2019-03-16T16:32:48.218Z,44.40
2019-03-16T16:35:17.014Z,44.20
2019-03-16T16:37:45.846Z,43.50
2019-03-16T16:40:14.666Z,43.60
2019-03-16T16:42:43.426Z,43.60
2019-03-16T16:45:12.205Z,43.90
2019-03-16T16:47:41.078Z,43.40
2019-03-16T16:50:11.651Z,43.50
2019-03-16T16:52:40.463Z,43.40
2019-03-16T16:55:09.307Z,43.60
2019-03-16T16:57:38.061Z,44.10
2019-03-16T17:00:09.973Z,43.80
2019-03-16T17:02:38.716Z,44.60
2019-03-16T17:05:07.550Z,43.90
2019-03-16T17:07:36.282Z,44.00
2019-03-16T17:10:05.416Z,44.00
2019-03-16T17:12:34.136Z,43.80
2019-03-16T17:15:02.962Z,44.10
2019-03-16T17:17:35.386Z,44.20
2019-03-16T17:20:02.170Z,44.70
2019-03-16T17:22:30.961Z,44.40
2019-03-16T17:24:59.711Z,44.40
2019-03-16T17:27:28.454Z,44.80
2019-03-16T17:29:57.170Z,44.80
2019-03-16T17:32:25.902Z,44.80
2019-03-16T17:34:54.642Z,45.10
2019-03-16T17:37:23.450Z,45.40
2019-03-16T17:39:52.192Z,45.30
2019-03-16T17:42:20.976Z,45.60
2019-03-16T17:44:51.000Z,45.50
2019-03-16T17:47:20.116Z,45.70
2019-03-16T17:49:48.841Z,46.10
2019-03-16T17:52:17.650Z,46.20
2019-03-16T17:54:46.363Z,46.30
2019-03-16T17:57:15.127Z,46.50
2019-03-16T17:59:43.935Z,46.60
2019-03-16T18:02:12.734Z,47.00
2019-03-16T18:04:41.502Z,49.30
2019-03-16T18:07:10.258Z,46.90
2019-03-16T18:09:39.042Z,47.00
2019-03-16T18:12:07.782Z,47.10
2019-03-16T18:14:36.532Z,47.10
2019-03-16T18:17:05.276Z,47.30
2019-03-16T18:19:34.000Z,47.50
2019-03-16T18:22:02.842Z,47.30
2019-03-16T18:24:31.586Z,47.40
2019-03-16T18:27:00.378Z,48.00
2019-03-16T18:29:29.178Z,47.90
2019-03-16T18:32:07.228Z,48.10
2019-03-16T18:34:28.521Z,48.30
2019-03-16T18:36:57.240Z,48.50
2019-03-16T18:39:26.067Z,48.10
2019-03-16T18:41:54.892Z,48.90
2019-03-16T18:44:23.638Z,48.30
2019-03-16T18:46:52.398Z,48.80
2019-03-16T18:49:21.112Z,49.10
2019-03-16T18:51:49.858Z,49.50
2019-03-16T18:54:18.570Z,48.80
2019-03-16T18:56:47.329Z,49.00
2019-03-16T18:59:16.113Z,49.00
2019-03-16T19:01:44.898Z,49.60
2019-03-16T19:04:13.655Z,49.20
2019-03-16T19:06:42.469Z,48.90
2019-03-16T19:09:11.417Z,50.00
2019-03-16T19:11:40.167Z,51.30
2019-03-16T19:14:08.977Z,49.90
2019-03-16T19:16:37.945Z,49.40
2019-03-16T19:19:06.696Z,49.70
2019-03-16T19:21:35.466Z,49.70
2019-03-16T19:24:04.194Z,50.00
2019-03-16T19:26:32.944Z,50.00
2019-03-16T19:29:01.734Z,49.90
2019-03-16T19:31:30.516Z,50.00
2019-03-16T19:33:59.324Z,50.00
2019-03-16T19:36:28.077Z,50.00
2019-03-16T19:38:56.911Z,50.10
2019-03-16T19:41:25.733Z,50.20
2019-03-16T19:43:54.633Z,50.20
2019-03-16T19:46:23.471Z,50.40
2019-03-16T19:48:52.197Z,50.40
2019-03-16T19:51:21.149Z,50.60
2019-03-16T19:53:49.976Z,51.00
2019-03-16T19:56:18.807Z,50.70
2019-03-16T19:58:59.718Z,50.90
2019-03-16T20:01:18.084Z,51.10
2019-03-16T20:03:46.862Z,51.30
2019-03-16T20:06:25.058Z,51.30
2019-03-16T20:08:46.191Z,51.10
2019-03-16T20:11:14.931Z,51.10
2019-03-16T20:13:43.715Z,50.80
2019-03-16T20:16:12.468Z,50.70
2019-03-16T20:18:41.286Z,50.60
2019-03-16T20:21:10.046Z,50.50
2019-03-16T20:23:38.806Z,50.80
2019-03-16T20:26:07.538Z,50.60
2019-03-16T20:28:36.352Z,50.40
2019-03-16T20:31:05.383Z,50.40
2019-03-16T20:33:34.258Z,49.90
2019-03-16T20:36:02.995Z,49.50
2019-03-16T20:38:31.758Z,49.20
2019-03-16T20:41:00.489Z,49.00
2019-03-16T20:43:29.240Z,48.70
2019-03-16T20:45:58.117Z,48.70
2019-03-16T20:48:26.859Z,48.60
2019-03-16T20:50:55.668Z,48.30
2019-03-16T20:53:24.491Z,48.30
2019-03-16T20:55:53.291Z,48.20
2019-03-16T20:58:22.044Z,48.00
2019-03-16T21:00:50.770Z,48.70
2019-03-16T21:03:19.535Z,47.90
2019-03-16T21:05:48.378Z,48.40
2019-03-16T21:08:17.123Z,47.50
2019-03-16T21:10:45.886Z,47.20
2019-03-16T21:13:14.610Z,47.00
2019-03-16T21:15:43.426Z,47.30
2019-03-16T21:18:12.292Z,47.10
2019-03-16T21:20:41.091Z,46.80
2019-03-16T21:23:09.920Z,46.60
2019-03-16T21:25:38.723Z,46.30
2019-03-16T21:28:07.459Z,46.30
2019-03-16T21:30:36.303Z,46.00
2019-03-16T21:33:05.097Z,46.00
2019-03-16T21:35:33.857Z,45.50
2019-03-16T21:38:02.596Z,45.90
2019-03-16T21:40:31.408Z,45.80
2019-03-16T21:43:00.193Z,45.60
2019-03-16T21:45:28.942Z,45.60
2019-03-16T21:48:00.308Z,45.80
2019-03-16T21:50:28.146Z,45.40
2019-03-16T21:52:56.878Z,45.30
2019-03-16T21:55:25.633Z,45.50
2019-03-16T21:57:54.410Z,45.50
2019-03-16T22:00:23.315Z,45.60
2019-03-16T22:02:52.062Z,45.60
2019-03-16T22:05:20.810Z,45.20
2019-03-16T22:07:49.532Z,45.20
2019-03-16T22:10:18.267Z,45.40
2019-03-16T22:12:47.032Z,45.30
2019-03-16T22:15:15.844Z,45.40
2019-03-16T22:17:44.777Z,45.20
2019-03-16T22:20:13.518Z,45.40
2019-03-16T22:22:42.254Z,45.40
2019-03-16T22:25:10.989Z,45.30
2019-03-16T22:27:39.818Z,45.30
2019-03-16T22:30:09.034Z,45.90
2019-03-16T22:32:37.779Z,45.90
2019-03-16T22:35:08.998Z,45.40
2019-03-16T22:37:37.050Z,45.40
2019-03-16T22:40:05.878Z,45.10
2019-03-16T22:42:34.698Z,45.00
2019-03-16T22:45:03.511Z,44.90
2019-03-16T22:47:32.260Z,44.70
2019-03-16T22:50:01.052Z,44.60
2019-03-16T22:52:29.862Z,44.50
2019-03-16T22:54:58.586Z,44.70
2019-03-16T22:57:27.399Z,44.30
2019-03-16T22:59:56.110Z,44.50
2019-03-16T23:02:24.836Z,44.90
2019-03-16T23:04:53.647Z,45.00
2019-03-16T23:07:22.454Z,45.30
2019-03-16T23:09:51.175Z,45.70
2019-03-16T23:12:19.933Z,45.20
2019-03-16T23:14:48.707Z,45.40
2019-03-16T23:17:17.583Z,45.30
2019-03-16T23:19:46.303Z,45.40
2019-03-16T23:22:15.092Z,45.60
2019-03-16T23:24:43.851Z,45.30
2019-03-16T23:27:12.599Z,45.70
2019-03-16T23:29:41.455Z,45.50
2019-03-16T23:32:10.478Z,45.80
2019-03-16T23:34:39.286Z,45.90
2019-03-16T23:37:08.022Z,45.80
2019-03-16T23:39:36.799Z,46.10
2019-03-16T23:42:05.555Z,46.60
2019-03-16T23:44:34.322Z,47.60
2019-03-16T23:47:03.312Z,47.50
2019-03-16T23:49:32.147Z,47.50
2019-03-16T23:52:00.917Z,47.60
2019-03-16T23:54:29.945Z,48.00
2019-03-16T23:56:58.813Z,48.40
2019-03-16T23:59:27.629Z,48.60
